Minneapolis, Minnesota
Traffic Map
Current Weather Conditions
Minneapolis, Minnesota
Broken Clouds
Broken Clouds
76°
Feels Like: 76°
Wind Chill: 76° Ceiling: 20000
Heat Index: 76° Visibility: 10mi
Dew Point: 60° Wind: 14mph
Humidity: 58% Direction: 90° (E)
Pressure: 29.9in Gusts: 25mph
Raw Report DataKMSP 201653Z 09012G22KT 10SM FEW030 SCT060 BKN200 BKN250 24/16 A2990 RMK AO2 SLP122 T02440156
Traffic Incident Summary
Active as of:
Severity:
Category:
InformationThere was an issue retrieving the traffic information for this location. Please try a different location or try again shortly.
Advertisements